Time;durP1;ratioP1;P1;durP2;ratioP2;P2;SDS_P1;SDS_P2;PMS_P1;PMS_P2;Temp;Humidity;BMP_temperature;BMP_pressure;BME280_temperature;BME280_humidity;BME280_pressure;Samples;Min_cycle;Max_cycle;Signal;HPM_P1;HPM_P2
2021/06/08 00:00:00;;;;;;;6.40;5.90;;;22.10;60.90;;;;;;5053104;28;20481;-63
2021/06/08 00:02:26;;;;;;;5.57;5.20;;;22.10;61.00;;;;;;5053412;28;20485;-63
2021/06/08 00:04:53;;;;;;;5.83;5.43;;;22.10;61.10;;;;;;5045306;28;20525;-64
2021/06/08 00:07:19;;;;;;;5.80;5.40;;;22.00;61.00;;;;;;5051878;28;20475;-62
2021/06/08 00:09:47;;;;;;;6.30;5.87;;;22.00;61.20;;;;;;5053528;28;20471;-62
2021/06/08 00:12:13;;;;;;;5.70;5.30;;;22.00;61.30;;;;;;5052942;28;20475;-62
2021/06/08 00:14:41;;;;;;;5.53;5.23;;;22.00;61.40;;;;;;5053221;28;20487;-62
2021/06/08 00:17:07;;;;;;;6.33;5.83;;;22.00;61.40;;;;;;5052778;28;20550;-62
2021/06/08 00:19:34;;;;;;;7.20;6.60;;;21.90;61.40;;;;;;5053312;28;20971;-62
2021/06/08 00:22:01;;;;;;;6.20;5.70;;;21.90;61.50;;;;;;5052819;28;20477;-62
2021/06/08 00:24:27;;;;;;;5.93;5.53;;;21.90;61.60;;;;;;5053260;28;20467;-62
2021/06/08 00:26:54;;;;;;;5.47;5.07;;;21.90;61.70;;;;;;5053155;28;20477;-62
2021/06/08 00:29:20;;;;;;;6.10;5.63;;;21.90;61.90;;;;;;5052773;28;20469;-62
2021/06/08 00:31:48;;;;;;;6.70;6.30;;;21.80;61.90;;;;;;5052955;28;20471;-62
2021/06/08 00:34:14;;;;;;;6.50;6.00;;;21.80;62.10;;;;;;5052613;28;20479;-62
2021/06/08 00:36:40;;;;;;;5.80;5.37;;;21.80;62.40;;;;;;5052694;28;20550;-62
2021/06/08 00:39:07;;;;;;;5.63;5.23;;;21.80;62.50;;;;;;5052595;28;20470;-62
2021/06/08 00:41:35;;;;;;;5.60;5.27;;;21.80;62.70;;;;;;5052789;28;20463;-62
2021/06/08 00:44:05;;;;;;;6.23;5.80;;;21.80;62.70;;;;;;5052329;28;20809;-62
2021/06/08 00:46:32;;;;;;;6.77;6.23;;;21.70;62.70;;;;;;5052834;28;20477;-62
2021/06/08 00:49:00;;;;;;;6.40;6.00;;;21.70;62.60;;;;;;5052296;28;20467;-64
2021/06/08 00:51:26;;;;;;;6.47;6.03;;;21.70;62.70;;;;;;5052874;28;20459;-62
2021/06/08 00:53:53;;;;;;;6.67;6.13;;;21.70;62.80;;;;;;5052467;28;20863;-62
2021/06/08 00:56:20;;;;;;;6.27;5.80;;;21.70;62.80;;;;;;5052117;28;20497;-62
2021/06/08 00:58:46;;;;;;;6.63;6.10;;;21.70;63.10;;;;;;5049684;28;20471;-62
2021/06/08 01:01:12;;;;;;;5.70;5.30;;;21.70;63.20;;;;;;5052304;28;20464;-62
2021/06/08 01:03:39;;;;;;;6.20;5.80;;;21.70;63.50;;;;;;5052656;28;20586;-62
2021/06/08 01:06:07;;;;;;;7.00;6.40;;;21.60;63.60;;;;;;5042174;28;20964;-62
2021/06/08 01:08:33;;;;;;;6.07;5.57;;;21.60;63.80;;;;;;5052438;28;20470;-63
2021/06/08 01:11:00;;;;;;;6.20;5.70;;;21.60;63.90;;;;;;5052331;28;20471;-62
2021/06/08 01:13:29;;;;;;;6.70;6.10;;;21.60;64.10;;;;;;5052694;28;20470;-62
2021/06/08 01:15:56;;;;;;;6.13;5.67;;;21.60;64.30;;;;;;5052426;28;20463;-62
2021/06/08 01:18:22;;;;;;;6.60;6.20;;;21.60;64.60;;;;;;5051848;28;20529;-62
2021/06/08 01:20:50;;;;;;;9.40;8.50;;;21.50;64.80;;;;;;5052533;28;20467;-62
2021/06/08 01:23:18;;;;;;;8.17;7.53;;;21.50;65.20;;;;;;5052043;28;20864;-62
2021/06/08 01:25:44;;;;;;;7.23;6.67;;;21.50;65.30;;;;;;5052509;28;20481;-62
2021/06/08 01:28:11;;;;;;;7.63;7.03;;;21.50;65.40;;;;;;5051858;28;20516;-62
2021/06/08 01:30:38;;;;;;;8.13;7.53;;;21.50;65.70;;;;;;5052397;28;20480;-62
2021/06/08 01:33:06;;;;;;;7.13;6.53;;;21.40;65.70;;;;;;5051861;28;20478;-62
2021/06/08 01:35:33;;;;;;;6.77;6.17;;;21.40;65.80;;;;;;5052445;28;20840;-62
2021/06/08 01:37:59;;;;;;;7.13;6.63;;;21.40;66.00;;;;;;5052085;28;20516;-62
2021/06/08 01:40:27;;;;;;;6.40;5.90;;;21.40;66.10;;;;;;5051897;28;20471;-63
2021/06/08 01:42:54;;;;;;;8.23;7.43;;;21.40;66.20;;;;;;5052286;28;20477;-62
2021/06/08 01:45:20;;;;;;;6.80;6.20;;;21.30;66.30;;;;;;5051870;28;20471;-62
2021/06/08 01:47:47;;;;;;;8.20;7.60;;;21.30;66.50;;;;;;5052067;28;21008;-62
2021/06/08 01:50:13;;;;;;;7.77;7.00;;;21.30;66.70;;;;;;5051803;28;20477;-62
2021/06/08 01:52:47;;;;;;;7.63;6.97;;;21.30;66.80;;;;;;5052094;28;20476;-62
2021/06/08 01:55:17;;;;;;;7.87;7.37;;;21.20;66.80;;;;;;5051688;28;20511;-62
2021/06/08 01:57:49;;;;;;;9.37;8.40;;;21.30;67.10;;;;;;5049177;28;20545;-62
2021/06/08 02:00:20;;;;;;;6.90;6.30;;;21.20;66.90;;;;;;5045339;28;20484;-62
2021/06/08 02:02:54;;;;;;;10.50;8.17;;;21.20;67.10;;;;;;5052011;28;20478;-62
2021/06/08 02:05:29;;;;;;;10.00;8.27;;;21.20;67.10;;;;;;5041571;28;20872;-62
2021/06/08 02:08:03;;;;;;;10.30;8.30;;;21.20;67.20;;;;;;5055097;28;20485;-63
2021/06/08 02:10:41;;;;;;;11.37;8.23;;;21.10;67.30;;;;;;5055390;28;21032;-63
2021/06/08 02:13:16;;;;;;;8.70;7.13;;;21.10;67.40;;;;;;5055316;28;20804;-62
2021/06/08 02:15:52;;;;;;;8.00;7.30;;;21.10;67.60;;;;;;5042870;28;20801;-63
2021/06/08 02:18:20;;;;;;;8.93;8.17;;;21.10;67.80;;;;;;5055093;28;21042;-62
2021/06/08 02:20:51;;;;;;;8.37;7.53;;;21.00;67.80;;;;;;5055626;28;20964;-62
2021/06/08 02:23:24;;;;;;;12.40;9.47;;;21.00;68.00;;;;;;5054990;28;20490;-62
2021/06/08 02:25:55;;;;;;;8.70;7.80;;;20.90;68.10;;;;;;5055382;28;20549;-62
2021/06/08 02:28:32;;;;;;;8.60;7.80;;;20.90;68.20;;;;;;5054930;28;20540;-62
2021/06/08 02:31:06;;;;;;;9.50;8.47;;;20.80;68.20;;;;;;5055388;28;20984;-62
2021/06/08 02:33:38;;;;;;;9.10;8.20;;;20.80;68.50;;;;;;5042468;28;20461;-62
2021/06/08 02:36:09;;;;;;;9.63;8.63;;;20.70;68.60;;;;;;5054906;28;20484;-62
2021/06/08 02:38:37;;;;;;;9.53;8.70;;;20.70;68.90;;;;;;5054798;28;20470;-62
2021/06/08 02:41:05;;;;;;;8.63;7.70;;;20.60;69.00;;;;;;5055055;28;20475;-62
2021/06/08 02:43:35;;;;;;;10.80;8.67;;;20.60;69.10;;;;;;5054565;28;20468;-62
2021/06/08 02:46:02;;;;;;;9.63;8.77;;;20.60;69.20;;;;;;5055013;28;20568;-63
2021/06/08 02:48:30;;;;;;;9.90;8.90;;;20.50;69.20;;;;;;5054566;28;20561;-63
2021/06/08 02:50:58;;;;;;;10.23;9.27;;;20.50;69.40;;;;;;5054937;28;20466;-63
2021/06/08 02:53:26;;;;;;;8.93;8.23;;;20.50;69.60;;;;;;5054723;28;20496;-63
2021/06/08 02:55:53;;;;;;;8.93;8.23;;;20.50;69.70;;;;;;5054670;28;20566;-64
2021/06/08 02:58:20;;;;;;;8.90;8.10;;;20.50;69.70;;;;;;5053890;28;20472;-64
2021/06/08 03:00:49;;;;;;;9.57;8.50;;;20.50;69.70;;;;;;5054875;28;20462;-62
2021/06/08 03:03:18;;;;;;;8.93;8.30;;;20.50;69.80;;;;;;5054347;28;20469;-61
2021/06/08 03:05:52;;;;;;;8.20;7.50;;;20.50;69.90;;;;;;5044304;28;20471;-62
2021/06/08 03:08:23;;;;;;;9.93;9.13;;;20.50;70.00;;;;;;5054261;28;20466;-62
2021/06/08 03:10:52;;;;;;;8.10;7.50;;;20.50;70.20;;;;;;5041835;28;20476;-63
2021/06/08 03:13:20;;;;;;;10.20;9.40;;;20.50;70.20;;;;;;5053949;28;20475;-62
2021/06/08 03:15:50;;;;;;;9.33;8.57;;;20.60;70.20;;;;;;5054554;28;20473;-63
2021/06/08 03:18:18;;;;;;;8.90;8.30;;;20.50;70.20;;;;;;5053514;28;20534;-63
2021/06/08 03:20:48;;;;;;;7.60;7.10;;;20.50;70.40;;;;;;5054555;28;20470;-63
2021/06/08 03:23:19;;;;;;;8.70;8.07;;;20.50;70.40;;;;;;5053969;28;20553;-62
2021/06/08 03:25:48;;;;;;;8.83;8.17;;;20.50;70.40;;;;;;5054431;28;20478;-63
2021/06/08 03:28:18;;;;;;;9.20;8.30;;;20.50;70.60;;;;;;5054016;28;20481;-63
2021/06/08 03:30:45;;;;;;;9.57;8.67;;;20.60;70.70;;;;;;5054038;28;21553;-63
2021/06/08 03:33:13;;;;;;;8.87;8.17;;;20.60;70.90;;;;;;5054067;28;20976;-62
2021/06/08 03:35:40;;;;;;;8.60;7.83;;;20.50;70.80;;;;;;5053589;28;20472;-62
2021/06/08 03:38:08;;;;;;;7.80;7.30;;;20.60;71.00;;;;;;5049443;28;20476;-63
2021/06/08 03:40:36;;;;;;;9.33;8.50;;;20.50;71.00;;;;;;5053684;28;20468;-62
2021/06/08 03:43:03;;;;;;;8.10;7.47;;;20.50;71.30;;;;;;5053955;28;20964;-62
2021/06/08 03:45:30;;;;;;;7.47;6.87;;;20.60;71.60;;;;;;5053513;28;20553;-63
2021/06/08 03:47:58;;;;;;;8.90;8.20;;;20.60;71.80;;;;;;5053693;28;20565;-63
2021/06/08 03:50:26;;;;;;;8.73;8.03;;;20.60;71.80;;;;;;5053404;28;20474;-62
2021/06/08 03:52:55;;;;;;;7.47;6.87;;;20.70;72.10;;;;;;5053634;28;20466;-63
2021/06/08 03:55:24;;;;;;;7.90;7.30;;;20.70;72.10;;;;;;5053380;28;20559;-63
2021/06/08 03:57:54;;;;;;;7.10;6.50;;;20.70;72.40;;;;;;5053324;28;20458;-62
2021/06/08 04:00:23;;;;;;;7.80;7.30;;;20.70;72.30;;;;;;5053561;28;20480;-63
2021/06/08 04:02:50;;;;;;;8.53;7.90;;;20.70;72.50;;;;;;5053220;28;21307;-62
2021/06/08 04:05:18;;;;;;;8.30;7.70;;;20.80;72.80;;;;;;5053036;28;20476;-62
2021/06/08 04:07:47;;;;;;;7.20;6.60;;;20.80;72.80;;;;;;5053001;28;20476;-63
2021/06/08 04:10:17;;;;;;;8.23;7.43;;;20.80;72.90;;;;;;5053463;28;20466;-63
2021/06/08 04:12:43;;;;;;;8.77;7.80;;;20.80;73.20;;;;;;5052938;28;20481;-63
2021/06/08 04:15:11;;;;;;;7.47;6.87;;;20.80;73.30;;;;;;5053408;28;20483;-62
2021/06/08 04:17:38;;;;;;;9.50;8.60;;;20.80;73.30;;;;;;5052744;28;20809;-62
2021/06/08 04:20:09;;;;;;;8.80;7.93;;;20.80;73.50;;;;;;5053314;28;20466;-64
2021/06/08 04:22:36;;;;;;;9.47;8.67;;;20.80;73.50;;;;;;5052839;28;20467;-62
2021/06/08 04:25:07;;;;;;;9.27;8.50;;;20.90;73.90;;;;;;5053381;28;20465;-62
2021/06/08 04:27:35;;;;;;;10.57;9.77;;;20.90;73.90;;;;;;5040168;28;20564;-63
2021/06/08 04:30:01;;;;;;;9.40;8.60;;;20.90;74.10;;;;;;5052331;28;20521;-63
2021/06/08 04:32:31;;;;;;;9.60;8.47;;;20.90;74.30;;;;;;5052641;28;20485;-63
2021/06/08 04:34:57;;;;;;;9.60;8.90;;;20.90;74.40;;;;;;5052834;28;20528;-63
2021/06/08 04:37:23;;;;;;;8.60;7.90;;;20.90;74.80;;;;;;5052891;28;20481;-63
2021/06/08 04:39:50;;;;;;;9.73;8.97;;;21.00;75.10;;;;;;5052525;28;20467;-63
2021/06/08 04:42:19;;;;;;;8.23;7.73;;;21.00;75.20;;;;;;5052977;28;20498;-63
2021/06/08 04:44:46;;;;;;;9.20;8.40;;;21.10;75.60;;;;;;5052448;28;20549;-63
2021/06/08 04:47:14;;;;;;;10.20;9.40;;;21.10;76.00;;;;;;5052907;28;20478;-62
2021/06/08 04:49:40;;;;;;;9.53;8.77;;;21.10;76.20;;;;;;5052346;28;20483;-63
2021/06/08 04:52:08;;;;;;;10.17;9.33;;;21.10;76.60;;;;;;5052910;28;20465;-64
2021/06/08 04:54:35;;;;;;;7.77;7.10;;;21.20;77.10;;;;;;5052371;28;20866;-63
2021/06/08 04:57:02;;;;;;;9.43;8.63;;;21.20;77.10;;;;;;5052224;28;20964;-63
2021/06/08 04:59:36;;;;;;;9.47;8.50;;;21.20;77.50;;;;;;5052016;28;20549;-63
2021/06/08 05:02:06;;;;;;;9.13;8.43;;;21.20;78.00;;;;;;5052780;28;20471;-63
2021/06/08 05:04:35;;;;;;;8.83;8.10;;;21.20;78.40;;;;;;5050505;28;20493;-63
2021/06/08 05:07:05;;;;;;;8.23;7.63;;;21.20;78.80;;;;;;5052526;28;20467;-63
2021/06/08 05:09:36;;;;;;;10.40;9.50;;;21.20;78.70;;;;;;5052202;28;20505;-63
2021/06/08 05:12:05;;;;;;;9.23;8.57;;;21.30;79.00;;;;;;5052583;28;20463;-63
2021/06/08 05:14:35;;;;;;;7.60;7.10;;;21.30;79.40;;;;;;5049489;28;20475;-63
2021/06/08 05:17:02;;;;;;;7.73;7.13;;;21.40;79.70;;;;;;5052282;28;20553;-63
2021/06/08 05:19:30;;;;;;;8.70;8.00;;;21.40;79.80;;;;;;5052414;28;20481;-62
2021/06/08 05:21:57;;;;;;;9.40;8.70;;;21.50;80.00;;;;;;5052322;28;20459;-63
2021/06/08 05:24:24;;;;;;;9.17;8.27;;;21.50;80.10;;;;;;5052382;28;20536;-63
2021/06/08 05:26:52;;;;;;;8.00;7.40;;;21.60;80.30;;;;;;5052017;28;20969;-63
2021/06/08 05:29:19;;;;;;;9.90;9.13;;;21.70;80.40;;;;;;5052104;28;20487;-63
2021/06/08 05:31:48;;;;;;;7.87;7.30;;;21.70;80.40;;;;;;5052075;28;20471;-63
2021/06/08 05:34:15;;;;;;;7.67;7.07;;;21.70;80.40;;;;;;5052238;28;20468;-63
2021/06/08 05:36:42;;;;;;;7.73;7.10;;;21.80;80.40;;;;;;5051701;28;20471;-63
2021/06/08 05:39:10;;;;;;;8.03;7.43;;;21.90;80.40;;;;;;5052191;28;20471;-63
2021/06/08 05:41:37;;;;;;;9.10;8.20;;;22.00;80.40;;;;;;5054663;28;20471;-63
2021/06/08 05:44:04;;;;;;;11.93;8.90;;;22.10;80.10;;;;;;5056104;28;20949;-63
2021/06/08 05:46:33;;;;;;;7.67;7.03;;;22.20;79.90;;;;;;5056166;28;21130;-63
2021/06/08 05:49:01;;;;;;;9.27;8.30;;;22.30;79.50;;;;;;5055559;28;20467;-63
2021/06/08 05:51:30;;;;;;;8.10;7.40;;;22.40;79.00;;;;;;5055870;28;20532;-63
2021/06/08 05:53:57;;;;;;;9.70;9.00;;;22.40;78.60;;;;;;5055514;28;20471;-62
2021/06/08 05:56:25;;;;;;;7.70;7.00;;;22.50;78.30;;;;;;5055891;28;20538;-63
2021/06/08 05:58:54;;;;;;;7.60;7.00;;;22.60;78.20;;;;;;5055011;28;20532;-63
2021/06/08 06:01:22;;;;;;;10.30;9.40;;;22.60;78.10;;;;;;5055865;28;20463;-63
2021/06/08 06:03:50;;;;;;;11.90;10.90;;;22.70;78.20;;;;;;5055389;28;20954;-64
2021/06/08 06:06:18;;;;;;;13.73;9.70;;;22.70;78.30;;;;;;5046087;28;20463;-62
2021/06/08 06:08:44;;;;;;;10.30;9.33;;;22.80;78.20;;;;;;5055228;28;20613;-63
2021/06/08 06:11:14;;;;;;;11.20;10.07;;;22.80;78.30;;;;;;5055774;28;20474;-63
2021/06/08 06:13:47;;;;;;;9.67;8.87;;;22.80;78.60;;;;;;5055089;28;20470;-63
2021/06/08 06:16:16;;;;;;;9.73;8.93;;;22.90;78.80;;;;;;5055417;28;20470;-63
2021/06/08 06:18:42;;;;;;;12.20;8.67;;;22.90;78.70;;;;;;5055117;28;20481;-63
2021/06/08 06:21:09;;;;;;;9.07;8.17;;;23.00;78.30;;;;;;5055433;28;20463;-63
2021/06/08 06:23:38;;;;;;;8.80;8.10;;;23.20;77.90;;;;;;5055507;28;20473;-63
2021/06/08 06:26:05;;;;;;;8.17;7.47;;;23.20;77.90;;;;;;5055057;28;20595;-62
2021/06/08 06:28:32;;;;;;;9.17;8.40;;;23.20;77.90;;;;;;5055377;28;20501;-63
2021/06/08 06:30:59;;;;;;;8.43;7.70;;;23.30;77.50;;;;;;5054904;28;20524;-63
2021/06/08 06:33:25;;;;;;;8.90;8.00;;;23.30;76.70;;;;;;5055245;28;20469;-63
2021/06/08 06:35:51;;;;;;;9.50;8.60;;;23.40;76.50;;;;;;5054729;28;20612;-63
2021/06/08 06:38:19;;;;;;;7.30;6.80;;;23.50;76.50;;;;;;5048539;28;20536;-63
2021/06/08 06:40:49;;;;;;;8.30;7.60;;;23.50;76.40;;;;;;5054704;28;20474;-63
2021/06/08 06:43:18;;;;;;;9.23;8.40;;;23.40;75.70;;;;;;5055009;28;20485;-63
2021/06/08 06:45:48;;;;;;;8.80;7.97;;;23.50;76.10;;;;;;5054752;28;20463;-63
2021/06/08 06:48:15;;;;;;;11.03;8.60;;;23.60;76.30;;;;;;5054886;28;20961;-63
2021/06/08 06:50:43;;;;;;;13.00;8.60;;;23.60;76.20;;;;;;5054382;28;20801;-64
2021/06/08 06:53:10;;;;;;;9.90;8.00;;;23.80;75.80;;;;;;5054223;28;20481;-63
2021/06/08 06:55:38;;;;;;;8.07;7.03;;;24.00;75.70;;;;;;5054526;28;20952;-63
2021/06/08 06:58:06;;;;;;;8.90;7.43;;;24.10;75.20;;;;;;5056507;28;20474;-63
2021/06/08 07:00:33;;;;;;;16.70;10.47;;;24.30;75.30;;;;;;5054581;28;20472;-63
2021/06/08 07:03:00;;;;;;;12.63;10.10;;;24.50;75.20;;;;;;5054291;28;20471;-63
2021/06/08 07:05:30;;;;;;;11.10;10.10;;;24.70;74.90;;;;;;5044935;28;20568;-63
2021/06/08 07:07:57;;;;;;;11.30;8.90;;;24.90;73.80;;;;;;5054267;28;20892;-63
2021/06/08 07:10:26;;;;;;;11.30;9.00;;;25.00;73.50;;;;;;5054589;28;20972;-64
2021/06/08 07:12:54;;;;;;;9.33;8.53;;;25.20;73.20;;;;;;5054112;28;20479;-64
2021/06/08 07:15:26;;;;;;;10.03;8.50;;;25.40;73.10;;;;;;5054365;28;20471;-62
2021/06/08 07:17:52;;;;;;;9.13;7.97;;;25.60;72.70;;;;;;5053912;28;20472;-62
2021/06/08 07:20:19;;;;;;;8.63;8.00;;;25.70;72.10;;;;;;5054292;28;20824;-63
2021/06/08 07:22:47;;;;;;;9.37;8.50;;;25.80;71.30;;;;;;5054147;28;20501;-63
2021/06/08 07:25:16;;;;;;;7.97;7.37;;;26.00;71.30;;;;;;5054102;28;20467;-63
2021/06/08 07:27:43;;;;;;;9.93;7.47;;;26.10;71.00;;;;;;5054014;28;20471;-63
2021/06/08 07:30:10;;;;;;;8.43;7.63;;;26.30;70.10;;;;;;5053855;28;21286;-63
2021/06/08 07:32:44;;;;;;;8.50;7.83;;;26.40;69.60;;;;;;5054178;28;20539;-64
2021/06/08 07:35:15;;;;;;;7.50;6.90;;;26.60;68.60;;;;;;5053725;28;21233;-63
2021/06/08 07:37:46;;;;;;;8.27;7.43;;;26.70;67.30;;;;;;5040919;28;20525;-63
2021/06/08 07:40:18;;;;;;;7.67;7.07;;;26.90;65.80;;;;;;5053934;28;21308;-63
2021/06/08 07:42:52;;;;;;;8.17;7.50;;;27.00;65.10;;;;;;5054002;28;20968;-63
2021/06/08 07:45:23;;;;;;;7.80;7.10;;;27.10;64.30;;;;;;5053785;28;20985;-63
2021/06/08 07:47:53;;;;;;;7.67;7.03;;;27.30;63.00;;;;;;5053682;28;20525;-63
2021/06/08 07:50:22;;;;;;;6.93;6.43;;;27.40;62.10;;;;;;5054868;28;20562;-63
2021/06/08 07:52:51;;;;;;;6.13;5.67;;;27.60;61.60;;;;;;5053639;28;20459;-62
2021/06/08 07:55:19;;;;;;;6.33;5.80;;;27.70;59.90;;;;;;5053192;28;20775;-62
2021/06/08 07:57:45;;;;;;;6.40;5.90;;;27.80;59.20;;;;;;5055900;28;20972;-64
2021/06/08 08:00:13;;;;;;;6.20;5.70;;;27.90;58.00;;;;;;5053196;28;20812;-64
2021/06/08 08:02:40;;;;;;;6.53;5.97;;;28.00;57.70;;;;;;5053580;28;20965;-63
2021/06/08 08:05:11;;;;;;;6.33;5.83;;;28.10;57.60;;;;;;5043617;28;20525;-63
2021/06/08 08:07:39;;;;;;;6.43;5.87;;;28.20;57.60;;;;;;5053297;28;20534;-63
2021/06/08 08:10:07;;;;;;;5.83;5.40;;;28.30;57.50;;;;;;5053083;28;20999;-62
2021/06/08 08:12:35;;;;;;;7.80;7.10;;;28.40;57.00;;;;;;5053461;28;20463;-63
2021/06/08 08:15:02;;;;;;;6.90;6.30;;;28.40;56.10;;;;;;5046365;28;20527;-62
2021/06/08 08:17:29;;;;;;;6.60;6.10;;;28.50;55.70;;;;;;5053214;28;20471;-63
2021/06/08 08:19:56;;;;;;;7.00;6.30;;;28.60;55.20;;;;;;5053284;28;20471;-62
2021/06/08 08:22:23;;;;;;;6.60;6.20;;;28.70;55.30;;;;;;5052968;28;21262;-63
2021/06/08 08:24:50;;;;;;;6.73;6.13;;;28.70;54.80;;;;;;5053155;28;20808;-63
2021/06/08 08:27:17;;;;;;;5.80;5.50;;;28.80;54.10;;;;;;5052682;28;20471;-62
2021/06/08 08:29:45;;;;;;;5.63;5.33;;;28.70;54.00;;;;;;5053081;28;20478;-63
2021/06/08 08:32:12;;;;;;;6.67;6.17;;;28.70;54.20;;;;;;5052646;28;20471;-63
2021/06/08 08:34:39;;;;;;;7.57;6.90;;;28.70;54.70;;;;;;5053111;28;20824;-63
2021/06/08 08:37:05;;;;;;;6.80;6.20;;;28.80;54.90;;;;;;5052455;28;20490;-62
2021/06/08 08:39:33;;;;;;;7.53;6.87;;;28.80;54.90;;;;;;5052843;28;20467;-63
2021/06/08 08:42:00;;;;;;;8.13;5.80;;;28.90;55.20;;;;;;5052417;28;20481;-62
2021/06/08 08:44:27;;;;;;;6.60;6.17;;;28.90;54.70;;;;;;5052704;28;20459;-62
2021/06/08 08:46:54;;;;;;;5.83;5.30;;;28.90;54.10;;;;;;5052764;28;20466;-63
2021/06/08 08:49:20;;;;;;;6.27;5.77;;;28.90;53.60;;;;;;5052248;28;20462;-63
2021/06/08 08:51:49;;;;;;;6.10;5.40;;;29.00;53.70;;;;;;5052816;28;20467;-62
2021/06/08 08:54:20;;;;;;;5.70;5.40;;;29.00;54.20;;;;;;5052199;28;20489;-64
2021/06/08 08:56:49;;;;;;;6.00;5.60;;;29.00;54.00;;;;;;5052572;28;20485;-63
2021/06/08 08:59:17;;;;;;;6.20;5.80;;;28.90;54.00;;;;;;5054542;28;20473;-62
2021/06/08 09:01:46;;;;;;;6.40;5.87;;;28.90;54.10;;;;;;5052603;28;20550;-62
2021/06/08 09:04:14;;;;;;;9.10;5.53;;;28.90;54.30;;;;;;5049429;28;20468;-63
2021/06/08 09:06:41;;;;;;;6.23;5.63;;;28.80;54.50;;;;;;5046718;28;20477;-62
2021/06/08 09:09:09;;;;;;;5.53;5.13;;;28.80;54.00;;;;;;5052107;28;20481;-63
2021/06/08 09:11:38;;;;;;;9.27;5.90;;;28.70;53.80;;;;;;5052441;28;21300;-63
2021/06/08 09:14:06;;;;;;;6.10;5.60;;;28.70;53.80;;;;;;5050863;28;21125;-63
2021/06/08 09:16:33;;;;;;;5.17;4.87;;;28.70;53.20;;;;;;5047181;28;20467;-63
2021/06/08 09:19:03;;;;;;;5.30;4.90;;;28.70;52.80;;;;;;5052436;28;20593;-64
2021/06/08 09:21:32;;;;;;;5.90;5.40;;;28.60;52.70;;;;;;5052096;28;20463;-63
2021/06/08 09:24:16;;;;;;;5.93;5.33;;;28.60;52.80;;;;;;5052632;28;20468;-64
2021/06/08 09:26:53;;;;;;;5.43;4.93;;;28.50;52.10;;;;;;5052688;28;20474;-63
2021/06/08 09:29:35;;;;;;;6.60;6.00;;;28.50;52.30;;;;;;5046701;28;20467;-62
2021/06/08 09:32:12;;;;;;;6.20;5.70;;;28.40;52.60;;;;;;5040695;28;20538;-63
2021/06/08 09:34:43;;;;;;;5.97;5.33;;;28.40;52.80;;;;;;5052270;28;20462;-63
2021/06/08 09:37:09;;;;;;;6.00;5.50;;;28.40;52.60;;;;;;5051897;28;20467;-64
2021/06/08 09:39:36;;;;;;;5.67;5.27;;;28.40;52.80;;;;;;5052135;28;20474;-63
2021/06/08 09:42:20;;;;;;;6.27;5.60;;;28.40;52.90;;;;;;5051886;28;20494;-64
2021/06/08 09:44:48;;;;;;;5.90;5.50;;;28.30;53.00;;;;;;5052141;28;20490;-63
2021/06/08 09:47:26;;;;;;;6.33;5.73;;;28.30;53.00;;;;;;5051676;28;20908;-64
2021/06/08 09:49:52;;;;;;;5.70;5.20;;;28.20;53.30;;;;;;5052275;28;21196;-63
2021/06/08 09:52:20;;;;;;;6.60;5.77;;;28.20;53.40;;;;;;5045300;28;20474;-63
2021/06/08 09:54:50;;;;;;;5.67;5.20;;;28.30;53.00;;;;;;5050029;28;20463;-62
2021/06/08 09:57:22;;;;;;;7.83;6.70;;;28.30;53.20;;;;;;5051392;28;20507;-63
2021/06/08 09:59:52;;;;;;;6.27;5.80;;;28.20;54.60;;;;;;5051463;28;20475;-63
2021/06/08 10:02:23;;;;;;;6.93;5.90;;;28.20;54.60;;;;;;5051663;28;20861;-63
2021/06/08 10:04:50;;;;;;;5.80;5.40;;;28.20;54.20;;;;;;5040014;28;20467;-63
2021/06/08 10:07:27;;;;;;;6.43;5.57;;;28.20;54.10;;;;;;5051339;28;20475;-63
2021/06/08 10:10:07;;;;;;;5.83;5.43;;;28.20;54.40;;;;;;5052143;28;20475;-63
2021/06/08 10:12:33;;;;;;;6.33;5.83;;;28.20;54.10;;;;;;5052235;28;20459;-63
2021/06/08 10:15:09;;;;;;;6.77;6.07;;;28.20;54.10;;;;;;5051962;28;20467;-63
2021/06/08 10:17:37;;;;;;;5.90;5.40;;;28.20;54.20;;;;;;5051757;28;20535;-63
2021/06/08 10:20:21;;;;;;;5.80;5.40;;;28.30;54.10;;;;;;5051705;28;21253;-62
2021/06/08 10:22:47;;;;;;;6.03;5.63;;;28.20;53.90;;;;;;5039176;28;20470;-62
2021/06/08 10:25:14;;;;;;;5.27;4.73;;;28.30;54.00;;;;;;5051963;28;20466;-63
2021/06/08 10:27:41;;;;;;;5.80;5.37;;;28.30;54.00;;;;;;5052521;28;20469;-63
2021/06/08 10:30:13;;;;;;;6.00;5.50;;;28.30;54.00;;;;;;5055207;28;20459;-64
2021/06/08 10:32:39;;;;;;;5.80;5.20;;;28.30;53.90;;;;;;5055308;28;20977;-64
2021/06/08 10:35:07;;;;;;;5.97;5.40;;;28.40;53.90;;;;;;5054903;28;20465;-63
2021/06/08 10:37:36;;;;;;;6.10;5.60;;;28.40;53.90;;;;;;5055211;28;20468;-63
2021/06/08 10:40:04;;;;;;;5.10;4.80;;;28.50;53.60;;;;;;5054861;28;20470;-63
2021/06/08 10:42:31;;;;;;;5.70;5.20;;;28.50;53.70;;;;;;5055120;28;20473;-62
2021/06/08 10:45:01;;;;;;;6.63;6.13;;;28.50;54.10;;;;;;5054583;28;20973;-62
2021/06/08 10:47:37;;;;;;;5.67;5.27;;;28.50;54.50;;;;;;5055145;28;20475;-63
2021/06/08 10:50:22;;;;;;;6.17;5.77;;;28.40;54.70;;;;;;5049078;28;20803;-62
2021/06/08 10:52:49;;;;;;;5.63;5.23;;;28.40;55.00;;;;;;5054438;28;20467;-62
2021/06/08 10:55:16;;;;;;;5.20;4.90;;;28.30;55.10;;;;;;5054973;28;20482;-62
2021/06/08 10:57:46;;;;;;;7.67;6.83;;;28.20;55.10;;;;;;5054481;28;20474;-62
2021/06/08 11:00:39;;;;;;;5.83;5.37;;;28.00;55.50;;;;;;5054498;28;21266;-62
2021/06/08 11:03:08;;;;;;;5.53;5.13;;;28.00;56.10;;;;;;5054270;28;20482;-62
2021/06/08 11:05:49;;;;;;;5.83;5.23;;;27.80;56.50;;;;;;5053926;28;20477;-63
2021/06/08 11:08:16;;;;;;;5.60;5.20;;;27.80;57.00;;;;;;5043200;28;21359;-63
2021/06/08 11:10:57;;;;;;;5.63;5.33;;;27.70;56.70;;;;;;5054515;28;20554;-63
2021/06/08 11:13:45;;;;;;;6.23;5.83;;;27.60;56.70;;;;;;5054505;28;20487;-63
2021/06/08 11:16:39;;;;;;;6.27;5.77;;;27.60;57.00;;;;;;5041455;28;20846;-63
2021/06/08 11:19:07;;;;;;;5.83;5.43;;;27.50;57.30;;;;;;5018734;28;20478;-63
2021/06/08 11:21:34;;;;;;;6.50;6.10;;;27.50;57.60;;;;;;5054547;28;20459;-63
2021/06/08 11:24:01;;;;;;;6.80;6.20;;;27.50;57.90;;;;;;5053901;28;20471;-63
2021/06/08 11:26:48;;;;;;;6.90;6.30;;;27.50;58.00;;;;;;5054279;28;20455;-63
2021/06/08 11:29:43;;;;;;;6.63;6.13;;;27.50;58.20;;;;;;5035011;28;20975;-63
2021/06/08 11:32:10;;;;;;;7.00;6.43;;;27.60;58.20;;;;;;5051700;28;20957;-63
2021/06/08 11:35:16;;;;;;;6.60;5.40;;;27.60;58.50;;;;;;5054334;28;21034;-63
2021/06/08 11:38:00;;;;;;;5.83;5.20;;;27.70;58.30;;;;;;5033902;28;20468;-63
2021/06/08 11:40:57;;;;;;;5.63;5.13;;;27.70;57.50;;;;;;5053925;28;20543;-63
2021/06/08 11:43:57;;;;;;;6.13;5.73;;;27.70;57.30;;;;;;5053738;28;20459;-63
2021/06/08 11:46:31;;;;;;;5.83;5.43;;;27.70;57.20;;;;;;5053389;28;20945;-62
2021/06/08 11:49:13;;;;;;;6.30;5.80;;;27.60;56.90;;;;;;5055086;28;20466;-63
2021/06/08 11:52:05;;;;;;;5.87;5.37;;;27.60;56.80;;;;;;5054876;28;20462;-62
2021/06/08 11:54:41;;;;;;;6.07;5.67;;;27.70;56.80;;;;;;5053157;28;20578;-62
2021/06/08 11:57:08;;;;;;;6.40;5.23;;;27.70;56.40;;;;;;5053184;28;20471;-63
2021/06/08 11:59:58;;;;;;;5.40;5.00;;;27.70;56.50;;;;;;5053172;28;20813;-62
2021/06/08 12:02:29;;;;;;;6.03;5.00;;;27.70;56.40;;;;;;5053134;28;20468;-62
2021/06/08 12:05:11;;;;;;;5.57;5.17;;;27.70;56.40;;;;;;5052983;28;20467;-63
2021/06/08 12:07:42;;;;;;;9.77;6.07;;;27.70;56.20;;;;;;5053058;28;20467;-62
2021/06/08 12:10:11;;;;;;;6.57;5.90;;;27.70;56.50;;;;;;5053465;28;20485;-63
2021/06/08 12:12:47;;;;;;;6.20;5.80;;;27.60;56.60;;;;;;5053127;28;20473;-62
2021/06/08 12:15:20;;;;;;;6.40;5.90;;;27.60;56.10;;;;;;5053449;28;20486;-63
2021/06/08 12:17:59;;;;;;;5.80;5.40;;;27.60;56.50;;;;;;5052578;28;20470;-62
2021/06/08 12:20:26;;;;;;;6.80;6.20;;;27.60;56.50;;;;;;5052912;28;20527;-63
2021/06/08 12:22:53;;;;;;;5.80;5.40;;;27.60;56.60;;;;;;5053423;28;20463;-62
2021/06/08 12:25:21;;;;;;;5.43;5.03;;;27.50;56.80;;;;;;5053180;28;20477;-63
2021/06/08 12:27:48;;;;;;;5.40;4.90;;;27.50;56.50;;;;;;5052726;28;20471;-63
2021/06/08 12:30:17;;;;;;;5.70;5.40;;;27.60;56.50;;;;;;5053051;28;20588;-62
2021/06/08 12:32:44;;;;;;;5.40;4.90;;;27.60;56.20;;;;;;5052622;28;20931;-63
2021/06/08 12:35:32;;;;;;;5.70;5.20;;;27.60;56.00;;;;;;5052961;28;20486;-63
2021/06/08 12:38:14;;;;;;;6.00;5.60;;;27.70;55.70;;;;;;5052515;28;20460;-63
2021/06/08 12:40:43;;;;;;;6.00;5.53;;;27.70;55.50;;;;;;5040351;28;20571;-63
2021/06/08 12:43:09;;;;;;;5.60;5.10;;;27.80;55.70;;;;;;5052911;28;20554;-63
2021/06/08 12:45:36;;;;;;;6.00;5.53;;;27.90;55.30;;;;;;5052632;28;20474;-63
2021/06/08 12:48:16;;;;;;;7.83;5.57;;;27.90;55.00;;;;;;5052539;28;20481;-64
2021/06/08 12:50:42;;;;;;;6.43;5.83;;;28.10;54.80;;;;;;5057081;28;20470;-63
2021/06/08 12:53:09;;;;;;;5.83;5.33;;;28.10;54.40;;;;;;5051188;28;20502;-63
2021/06/08 12:55:35;;;;;;;6.20;5.60;;;28.20;54.10;;;;;;5052420;28;20941;-63
2021/06/08 12:58:04;;;;;;;5.70;5.30;;;28.20;53.80;;;;;;5052195;28;20463;-63